New Hampton, New Hampshire
Current Conditions -  °F | °C
As of 5:35 AM on Tuesday 27 Jan 2015 (Local Time) from KLCI Reporting Station
Overcast Overcast  
Wind Chill:   Ceiling: 1200
Heat Index: 12°   Visibility: 1.2mi
Dew Point:   Wind: 8mph
Humidity: 79%   Direction: 50°NE
Pressure: 29.76"   Gusts: NA
Location:  43.61°N, 71.65°W
Report Text: KLCI 271035Z AUTO 05007KT 1 1/4SM OVC012 M11/M14 A2976 RMK AO1
Loading
Personal Weather Stations






























Interactive Weather Map New forecast layout! Learn more

10-Day Weather Forecast

Advertisements
Track Severe Weather on mobile